Kansas City, Missouri
Traffic Map
Current Weather Conditions
Kansas City, Missouri
Overcast
Overcast
16°
Feels Like: 16°
Wind Chill: 16° Ceiling: 1200
Heat Index: 16° Visibility: 10mi
Dew Point: 13° Wind: 14mph
Humidity: 81% Direction: 10° (N)
Pressure: 29.56in Gusts: 0mph
Raw Report DataKMKC 251954Z 01012KT 10SM OVC012 16/13 A2956 RMK AO2 SLP005 T01610128 PNO $
Traffic Incident Summary
Active as of:
Severity:
Category:
InformationThere was an issue retrieving the traffic information for this location. Please try a different location or try again shortly.
Advertisements
Track Severe Weather on mobile